Time;durP1;ratioP1;P1;durP2;ratioP2;P2;SDS_P1;SDS_P2;PMS_P1;PMS_P2;Temp;Humidity;BMP_temperature;BMP_pressure;BME280_temperature;BME280_humidity;BME280_pressure;Samples;Min_cycle;Max_cycle;Signal;HPM_P1;HPM_P2
2023/01/12 00:02:16;;;;;;;1.05;0.73;;;;;;;;;;5005863;28;20392;-74
2023/01/12 00:04:42;;;;;;;1.27;0.85;;;;;;;;;;5005803;28;20564;-74
2023/01/12 00:07:09;;;;;;;1.20;0.70;;;;;;;;;;5005091;28;20014;-73
2023/01/12 00:09:35;;;;;;;1.08;0.98;;;;;;;;;;5004554;28;20018;-74
2023/01/12 00:12:06;;;;;;;1.77;0.93;;;;;;;;;;5004924;28;20478;-73
2023/01/12 00:14:35;;;;;;;0.68;0.68;;;;;;;;;;5006482;28;20037;-73
2023/01/12 00:17:01;;;;;;;0.60;0.60;;;;;;;;;;5002175;28;20425;-73
2023/01/12 00:19:27;;;;;;;0.60;0.60;;;;;;;;;;5005879;28;20171;-73
2023/01/12 00:21:56;;;;;;;0.88;0.73;;;;;;;;;;5007057;28;20527;-74
2023/01/12 00:24:32;;;;;;;1.42;0.82;;;;;;;;;;5006172;28;20037;-74
2023/01/12 00:26:59;;;;;;;1.85;0.95;;;;;;;;;;5000181;28;20041;-73
2023/01/12 00:29:25;;;;;;;1.20;0.80;;;;;;;;;;5006580;28;20061;-73
2023/01/12 00:31:52;;;;;;;2.75;0.93;;;;;;;;;;5005097;28;20037;-73
2023/01/12 00:34:18;;;;;;;1.17;0.75;;;;;;;;;;5005850;28;20030;-73
2023/01/12 00:36:47;;;;;;;1.85;0.82;;;;;;;;;;4988679;28;20489;-73
2023/01/12 00:39:13;;;;;;;0.93;0.65;;;;;;;;;;5002794;28;20543;-73
2023/01/12 00:47:10;;;;;;;0.90;0.68;;;;;;;;;;5009541;28;20049;-73
2023/01/12 00:49:37;;;;;;;4.45;1.05;;;;;;;;;;5008275;28;20335;-73
2023/01/12 00:52:04;;;;;;;0.80;0.80;;;;;;;;;;5009861;28;20495;-73
2023/01/12 00:54:30;;;;;;;1.50;0.80;;;;;;;;;;5011087;28;20026;-73
2023/01/12 00:56:56;;;;;;;0.77;0.77;;;;;;;;;;5010872;28;20045;-73
2023/01/12 00:59:22;;;;;;;0.98;0.90;;;;;;;;;;5008245;28;20694;-74
2023/01/12 01:01:51;;;;;;;0.60;0.57;;;;;;;;;;5009494;28;20424;-73
2023/01/12 01:04:17;;;;;;;0.82;0.65;;;;;;;;;;5010057;28;20034;-73
2023/01/12 01:06:43;;;;;;;0.90;0.77;;;;;;;;;;5009032;28;20033;-73
2023/01/12 01:09:09;;;;;;;1.58;0.70;;;;;;;;;;5007103;28;20627;-73
2023/01/12 01:11:35;;;;;;;0.55;0.55;;;;;;;;;;5005548;28;20076;-73
2023/01/12 01:14:02;;;;;;;1.20;0.70;;;;;;;;;;5009676;28;20025;-73
2023/01/12 01:16:28;;;;;;;1.52;0.85;;;;;;;;;;5009751;28;20064;-73
2023/01/12 01:18:55;;;;;;;1.02;0.77;;;;;;;;;;5008848;28;20029;-73
2023/01/12 01:21:21;;;;;;;1.25;0.73;;;;;;;;;;5005765;28;20168;-74
2023/01/12 01:23:47;;;;;;;0.88;0.70;;;;;;;;;;5004670;28;20026;-73
2023/01/12 01:26:21;;;;;;;0.98;0.80;;;;;;;;;;5009501;28;20073;-73
2023/01/12 01:28:47;;;;;;;1.10;1.00;;;;;;;;;;5007374;28;20113;-74
2023/01/12 01:31:21;;;;;;;0.95;0.70;;;;;;;;;;5007300;28;20018;-73
2023/01/12 01:33:47;;;;;;;1.55;1.02;;;;;;;;;;5010357;28;20054;-74
2023/01/12 01:36:14;;;;;;;2.38;0.90;;;;;;;;;;5009060;28;20037;-74
2023/01/12 01:38:40;;;;;;;6.20;1.15;;;;;;;;;;5005840;28;20377;-74
2023/01/12 01:41:06;;;;;;;1.20;0.80;;;;;;;;;;5007534;28;20026;-74
2023/01/12 01:43:52;;;;;;;3.10;0.63;;;;;;;;;;5009042;28;20037;-73
2023/01/12 01:46:23;;;;;;;1.27;0.80;;;;;;;;;;5008040;28;20038;-73
2023/01/12 01:48:49;;;;;;;1.42;0.93;;;;;;;;;;4988084;28;20040;-74
2023/01/12 01:51:16;;;;;;;2.13;0.60;;;;;;;;;;5008892;28;20129;-74
2023/01/12 01:53:43;;;;;;;0.60;0.52;;;;;;;;;;5008411;28;20026;-73
2023/01/12 01:56:16;;;;;;;0.68;0.68;;;;;;;;;;5006630;28;20025;-73
2023/01/12 01:58:59;;;;;;;3.95;0.85;;;;;;;;;;5008466;28;20083;-74
2023/01/12 02:01:25;;;;;;;1.05;0.90;;;;;;;;;;5006985;28;20056;-73
2023/01/12 02:03:53;;;;;;;1.25;0.60;;;;;;;;;;5010146;28;20113;-74
2023/01/12 02:06:22;;;;;;;0.52;0.52;;;;;;;;;;5007251;28;20140;-73
2023/01/12 02:08:57;;;;;;;0.63;0.63;;;;;;;;;;5009700;28;20053;-73
2023/01/12 02:16:56;;;;;;;0.68;0.68;;;;;;;;;;5008275;28;20176;-73
2023/01/12 02:19:37;;;;;;;1.83;0.68;;;;;;;;;;5008350;28;20058;-73
2023/01/12 02:22:32;;;;;;;1.30;0.73;;;;;;;;;;5007899;28;20022;-73
2023/01/12 02:25:10;;;;;;;0.60;0.60;;;;;;;;;;5005722;28;20049;-73
2023/01/12 02:27:46;;;;;;;0.47;0.47;;;;;;;;;;5006715;28;20105;-73
2023/01/12 02:30:28;;;;;;;1.30;0.70;;;;;;;;;;5005846;28;20119;-73
2023/01/12 02:33:04;;;;;;;0.47;0.47;;;;;;;;;;5006937;28;20057;-74
2023/01/12 02:35:33;;;;;;;1.83;0.80;;;;;;;;;;5008129;28;20034;-74
2023/01/12 02:38:08;;;;;;;1.42;0.60;;;;;;;;;;5007716;28;20052;-74
2023/01/12 02:40:47;;;;;;;1.05;0.70;;;;;;;;;;5008979;28;20068;-74
2023/01/12 02:43:25;;;;;;;1.58;0.63;;;;;;;;;;5006604;28;20477;-74
2023/01/12 02:45:58;;;;;;;0.98;0.77;;;;;;;;;;5006977;28;20032;-74
2023/01/12 02:48:46;;;;;;;0.60;0.60;;;;;;;;;;5003027;28;20034;-74
2023/01/12 02:51:23;;;;;;;1.40;0.60;;;;;;;;;;5006471;28;20030;-74
2023/01/12 02:53:53;;;;;;;0.43;0.43;;;;;;;;;;5007459;28;20022;-75
2023/01/12 02:56:33;;;;;;;0.60;0.53;;;;;;;;;;5004769;28;20034;-74
2023/01/12 02:59:03;;;;;;;2.45;0.70;;;;;;;;;;4999490;28;20034;-74
2023/01/12 03:01:34;;;;;;;1.20;0.60;;;;;;;;;;5007313;28;20030;-74
2023/01/12 03:04:01;;;;;;;0.50;0.50;;;;;;;;;;5006742;28;20385;-74
2023/01/12 03:06:37;;;;;;;0.60;0.60;;;;;;;;;;5002365;28;20029;-75
2023/01/12 03:09:03;;;;;;;3.15;0.68;;;;;;;;;;5008263;28;20202;-75
2023/01/12 03:11:29;;;;;;;0.55;0.55;;;;;;;;;;5004891;28;20283;-74
2023/01/12 03:13:57;;;;;;;0.82;0.50;;;;;;;;;;5007683;28;20574;-74
2023/01/12 03:16:24;;;;;;;0.75;0.75;;;;;;;;;;5006503;28;20516;-74
2023/01/12 03:19:09;;;;;;;1.15;0.57;;;;;;;;;;5008864;28;20037;-74
2023/01/12 03:21:36;;;;;;;0.50;0.50;;;;;;;;;;5004468;28;20018;-74
2023/01/12 03:24:04;;;;;;;1.88;0.55;;;;;;;;;;5004968;28;20022;-74
2023/01/12 03:26:31;;;;;;;0.63;0.40;;;;;;;;;;5002919;28;20076;-74
2023/01/12 03:29:05;;;;;;;0.68;0.40;;;;;;;;;;5007506;28;20044;-74
2023/01/12 03:31:31;;;;;;;0.73;0.60;;;;;;;;;;5006956;28;20022;-75
2023/01/12 03:33:57;;;;;;;0.90;0.65;;;;;;;;;;5005642;28;20148;-74
2023/01/12 03:36:28;;;;;;;1.75;0.60;;;;;;;;;;5005489;28;20030;-73
2023/01/12 03:39:00;;;;;;;0.40;0.40;;;;;;;;;;5007299;28;20038;-74
2023/01/12 03:41:34;;;;;;;1.85;0.55;;;;;;;;;;5004597;28;20122;-74
2023/01/12 03:44:04;;;;;;;2.38;0.70;;;;;;;;;;5007383;28;20072;-74
2023/01/12 03:46:41;;;;;;;0.55;0.55;;;;;;;;;;5004456;28;20203;-74
2023/01/12 03:49:12;;;;;;;1.02;0.90;;;;;;;;;;5003762;28;20029;-73
2023/01/12 03:51:38;;;;;;;;;;;;;;;;;;5008225;28;20030;-73
2023/01/12 03:54:06;;;;;;;0.47;0.47;;;;;;;;;;5007434;28;19955;-73
2023/01/12 03:56:34;;;;;;;0.95;0.60;;;;;;;;;;5006358;28;20034;-74
2023/01/12 03:59:00;;;;;;;0.82;0.50;;;;;;;;;;5005100;28;20025;-74
2023/01/12 04:01:26;;;;;;;0.50;0.50;;;;;;;;;;5005188;28;20030;-73
2023/01/12 04:03:52;;;;;;;1.17;0.50;;;;;;;;;;5005544;28;20452;-74
2023/01/12 04:06:18;;;;;;;1.15;0.50;;;;;;;;;;5004250;28;20026;-74
2023/01/12 04:08:44;;;;;;;1.40;0.50;;;;;;;;;;5003821;28;20026;-75
2023/01/12 04:13:55;;;;;;;1.05;0.65;;;;;;;;;;5005992;28;20099;-73
2023/01/12 04:16:21;;;;;;;1.08;0.70;;;;;;;;;;5004291;28;20112;-74
2023/01/12 04:18:47;;;;;;;1.27;0.40;;;;;;;;;;5006160;28;20029;-74
2023/01/12 04:23:59;;;;;;;1.13;0.47;;;;;;;;;;5010023;28;20036;-73
2023/01/12 04:26:25;;;;;;;1.40;0.57;;;;;;;;;;5002787;28;20057;-73
2023/01/12 04:28:51;;;;;;;1.10;0.63;;;;;;;;;;5008384;28;20025;-74
2023/01/12 04:31:20;;;;;;;0.60;0.60;;;;;;;;;;5007555;28;20104;-73
2023/01/12 04:33:49;;;;;;;0.50;0.43;;;;;;;;;;5010411;28;20030;-73
2023/01/12 04:36:15;;;;;;;1.17;0.82;;;;;;;;;;5009678;28;20069;-72
2023/01/12 04:38:42;;;;;;;1.52;0.40;;;;;;;;;;5008557;28;20084;-74
2023/01/12 04:41:08;;;;;;;1.35;0.60;;;;;;;;;;5008777;28;20120;-74
2023/01/12 04:43:35;;;;;;;0.73;0.50;;;;;;;;;;5010363;28;20068;-73
2023/01/12 04:46:05;;;;;;;1.92;0.90;;;;;;;;;;5006053;28;20109;-74
2023/01/12 04:48:31;;;;;;;1.75;0.45;;;;;;;;;;5006395;28;20021;-74
2023/01/12 04:50:58;;;;;;;0.75;0.50;;;;;;;;;;5009898;28;20026;-73
2023/01/12 04:53:25;;;;;;;0.68;0.52;;;;;;;;;;5010323;28;20038;-74
2023/01/12 04:55:50;;;;;;;1.42;0.60;;;;;;;;;;5009717;28;20020;-73
2023/01/12 04:58:16;;;;;;;1.65;0.50;;;;;;;;;;5009963;28;20021;-74
2023/01/12 05:00:42;;;;;;;0.73;0.68;;;;;;;;;;5009188;28;20029;-74
2023/01/12 05:03:11;;;;;;;0.85;0.70;;;;;;;;;;5010611;28;20022;-74
2023/01/12 05:05:37;;;;;;;1.42;0.63;;;;;;;;;;5008703;28;20030;-74
2023/01/12 05:10:49;;;;;;;0.90;0.50;;;;;;;;;;5008245;28;20568;-74
2023/01/12 05:13:15;;;;;;;1.98;0.40;;;;;;;;;;5009906;28;20915;-74
2023/01/12 05:15:41;;;;;;;0.85;0.35;;;;;;;;;;5009603;28;20030;-73
2023/01/12 05:18:07;;;;;;;0.90;0.43;;;;;;;;;;5009800;28;20029;-74
2023/01/12 05:20:33;;;;;;;1.83;0.60;;;;;;;;;;5008833;28;20096;-74
2023/01/12 05:22:58;;;;;;;0.40;0.32;;;;;;;;;;5009398;28;20026;-74
2023/01/12 05:25:25;;;;;;;0.40;0.40;;;;;;;;;;5005879;28;20046;-74
2023/01/12 05:27:54;;;;;;;0.32;0.30;;;;;;;;;;5009932;28;20041;-73
2023/01/12 05:30:20;;;;;;;1.70;0.60;;;;;;;;;;5009000;28;20433;-74
2023/01/12 05:32:46;;;;;;;0.38;0.38;;;;;;;;;;5010096;28;20030;-74
2023/01/12 05:35:12;;;;;;;0.68;0.47;;;;;;;;;;5007125;28;20168;-73
2023/01/12 05:37:38;;;;;;;2.55;0.57;;;;;;;;;;5006455;28;20037;-73
2023/01/12 05:40:04;;;;;;;1.98;0.57;;;;;;;;;;5006851;28;20038;-73
2023/01/12 05:45:15;;;;;;;0.47;0.47;;;;;;;;;;5008646;28;20057;-74
2023/01/12 05:47:41;;;;;;;1.23;0.40;;;;;;;;;;5005063;28;20029;-74
2023/01/12 05:50:07;;;;;;;1.48;0.45;;;;;;;;;;5008418;28;20504;-74
2023/01/12 05:52:33;;;;;;;0.98;0.80;;;;;;;;;;5008204;28;20050;-73
2023/01/12 05:54:59;;;;;;;4.50;0.63;;;;;;;;;;5007496;28;20076;-74
2023/01/12 05:57:25;;;;;;;0.30;0.30;;;;;;;;;;5006501;28;20034;-73
2023/01/12 05:59:54;;;;;;;2.63;0.60;;;;;;;;;;5008592;28;20030;-73
2023/01/12 06:02:20;;;;;;;0.70;0.30;;;;;;;;;;5006151;28;20076;-73
2023/01/12 06:04:46;;;;;;;0.28;0.28;;;;;;;;;;5008029;28;20033;-73
2023/01/12 06:07:13;;;;;;;0.52;0.52;;;;;;;;;;5008454;28;20632;-73
2023/01/12 06:09:39;;;;;;;0.50;0.50;;;;;;;;;;5007830;28;20117;-74
2023/01/12 06:14:50;;;;;;;0.47;0.47;;;;;;;;;;5008616;28;20436;-73
2023/01/12 06:17:16;;;;;;;0.70;0.40;;;;;;;;;;5009185;28;20022;-73
2023/01/12 06:19:42;;;;;;;0.45;0.45;;;;;;;;;;5008883;28;20534;-73
2023/01/12 06:22:08;;;;;;;1.48;0.57;;;;;;;;;;5006787;28;20465;-73
2023/01/12 06:24:34;;;;;;;0.32;0.32;;;;;;;;;;5005284;28;20022;-74
2023/01/12 06:27:00;;;;;;;1.40;0.60;;;;;;;;;;5009254;28;20515;-73
2023/01/12 06:29:26;;;;;;;0.40;0.40;;;;;;;;;;5007050;28;20030;-73
2023/01/12 06:31:52;;;;;;;0.73;0.60;;;;;;;;;;5006302;28;20040;-74
2023/01/12 06:34:18;;;;;;;0.30;0.30;;;;;;;;;;5006837;28;20853;-73
2023/01/12 06:36:44;;;;;;;1.00;0.47;;;;;;;;;;5009255;28;20029;-74
2023/01/12 06:39:13;;;;;;;0.77;0.40;;;;;;;;;;5006804;28;20030;-73
2023/01/12 06:44:24;;;;;;;0.30;0.30;;;;;;;;;;5005970;28;20037;-73
2023/01/12 06:46:50;;;;;;;0.63;0.50;;;;;;;;;;4998776;28;20023;-74
2023/01/12 06:49:16;;;;;;;0.32;0.30;;;;;;;;;;5007648;28;20037;-75
2023/01/12 06:51:43;;;;;;;0.80;0.32;;;;;;;;;;5008221;28;20025;-73
2023/01/12 06:54:09;;;;;;;0.30;0.30;;;;;;;;;;5005078;28;20129;-72
2023/01/12 06:56:35;;;;;;;0.52;0.40;;;;;;;;;;5015512;28;20120;-73
2023/01/12 06:59:04;;;;;;;1.63;0.45;;;;;;;;;;5005184;28;20030;-73
2023/01/12 07:01:30;;;;;;;3.22;0.40;;;;;;;;;;5009469;28;20017;-74
2023/01/12 07:03:55;;;;;;;1.00;0.47;;;;;;;;;;5007323;28;20436;-74
2023/01/12 07:06:21;;;;;;;1.50;0.70;;;;;;;;;;5007875;28;20021;-74
2023/01/12 07:09:04;;;;;;;0.40;0.40;;;;;;;;;;5005508;28;20037;-73
2023/01/12 07:11:30;;;;;;;0.40;0.40;;;;;;;;;;5007227;28;20057;-74
2023/01/12 07:13:56;;;;;;;0.70;0.70;;;;;;;;;;5003062;28;20477;-75
2023/01/12 07:16:22;;;;;;;1.05;0.38;;;;;;;;;;4990453;28;20077;-75
2023/01/12 07:18:48;;;;;;;3.88;0.43;;;;;;;;;;5008982;28;20026;-74
2023/01/12 07:21:15;;;;;;;0.25;0.20;;;;;;;;;;5006200;28;20024;-75
2023/01/12 07:23:42;;;;;;;0.77;0.50;;;;;;;;;;4986460;28;20024;-74
2023/01/12 07:26:09;;;;;;;0.35;0.32;;;;;;;;;;5008821;28;20486;-74
2023/01/12 07:28:35;;;;;;;1.17;0.50;;;;;;;;;;5008554;28;20113;-74
2023/01/12 07:31:02;;;;;;;0.60;0.60;;;;;;;;;;5008673;28;20052;-74
2023/01/12 07:33:31;;;;;;;0.57;0.50;;;;;;;;;;5008569;28;20022;-74
2023/01/12 07:36:00;;;;;;;0.52;0.52;;;;;;;;;;5004138;28;20482;-73
2023/01/12 07:38:27;;;;;;;0.60;0.57;;;;;;;;;;5005720;28;20040;-75
2023/01/12 07:40:53;;;;;;;0.43;0.40;;;;;;;;;;5005856;28;20071;-75
2023/01/12 07:43:19;;;;;;;0.43;0.40;;;;;;;;;;5004842;28;20488;-75
2023/01/12 07:45:45;;;;;;;1.17;0.40;;;;;;;;;;5003194;28;20030;-75
2023/01/12 07:48:12;;;;;;;2.22;0.38;;;;;;;;;;5005260;28;20024;-76
2023/01/12 07:50:38;;;;;;;0.47;0.40;;;;;;;;;;5005594;28;20025;-76
2023/01/12 07:53:04;;;;;;;1.00;0.43;;;;;;;;;;5003543;28;20703;-77
2023/01/12 07:55:31;;;;;;;0.63;0.20;;;;;;;;;;5002744;28;20026;-76
2023/01/12 07:57:58;;;;;;;0.52;0.52;;;;;;;;;;5007671;28;20025;-76
2023/01/12 08:00:24;;;;;;;0.73;0.40;;;;;;;;;;5009077;28;20535;-75
2023/01/12 08:02:51;;;;;;;0.40;0.35;;;;;;;;;;5009521;28;20469;-75
2023/01/12 08:05:17;;;;;;;1.55;0.60;;;;;;;;;;5002451;28;20445;-79
2023/01/12 08:07:44;;;;;;;0.80;0.50;;;;;;;;;;5006869;28;20033;-74
2023/01/12 08:10:10;;;;;;;0.98;0.55;;;;;;;;;;5005186;28;20646;-73
2023/01/12 08:12:36;;;;;;;0.60;0.40;;;;;;;;;;5003702;28;20481;-72
2023/01/12 08:15:03;;;;;;;0.60;0.40;;;;;;;;;;5004921;28;20088;-73
2023/01/12 08:17:31;;;;;;;1.90;0.60;;;;;;;;;;5006973;28;20026;-73
2023/01/12 08:20:00;;;;;;;0.63;0.50;;;;;;;;;;5007329;28;20033;-73
2023/01/12 08:22:33;;;;;;;0.50;0.40;;;;;;;;;;5007851;28;20032;-73
2023/01/12 08:25:03;;;;;;;1.63;0.43;;;;;;;;;;5006880;28;20053;-72
2023/01/12 08:27:30;;;;;;;0.47;0.38;;;;;;;;;;5010736;28;20480;-72
2023/01/12 08:29:58;;;;;;;0.63;0.43;;;;;;;;;;5005598;28;20030;-72
2023/01/12 08:32:25;;;;;;;1.30;0.40;;;;;;;;;;5007730;28;20040;-73
2023/01/12 08:34:52;;;;;;;0.68;0.40;;;;;;;;;;5005200;28;20034;-73
2023/01/12 08:37:20;;;;;;;0.60;0.47;;;;;;;;;;5006493;28;20378;-74
2023/01/12 08:39:46;;;;;;;0.95;0.40;;;;;;;;;;5005011;28;20052;-76
2023/01/12 08:42:12;;;;;;;0.43;0.43;;;;;;;;;;5004102;28;20492;-74
2023/01/12 08:44:38;;;;;;;2.05;0.60;;;;;;;;;;5005936;28;20018;-73
2023/01/12 08:47:05;;;;;;;4.47;0.60;;;;;;;;;;5002066;28;20056;-74
2023/01/12 08:49:33;;;;;;;2.63;0.65;;;;;;;;;;5006812;28;20080;-73
2023/01/12 08:51:59;;;;;;;4.95;0.40;;;;;;;;;;5006556;28;20025;-73
2023/01/12 08:54:25;;;;;;;0.88;0.65;;;;;;;;;;5007157;28;20077;-73
2023/01/12 08:56:52;;;;;;;1.65;0.60;;;;;;;;;;5003019;28;20061;-75
2023/01/12 08:59:18;;;;;;;2.65;0.50;;;;;;;;;;5005233;28;20115;-73
2023/01/12 09:01:44;;;;;;;0.85;0.65;;;;;;;;;;5007928;28;20484;-74
2023/01/12 09:04:10;;;;;;;0.98;0.40;;;;;;;;;;5006178;28;20083;-74
2023/01/12 09:06:41;;;;;;;1.13;0.50;;;;;;;;;;5009126;28;20025;-74
2023/01/12 09:09:09;;;;;;;0.38;0.38;;;;;;;;;;5008340;28;20072;-74
2023/01/12 09:11:35;;;;;;;1.20;0.35;;;;;;;;;;5010796;28;20030;-74
2023/01/12 09:14:02;;;;;;;0.80;0.50;;;;;;;;;;5010853;28;20112;-75
2023/01/12 09:16:29;;;;;;;0.85;0.60;;;;;;;;;;5010066;28;20030;-75
2023/01/12 09:18:55;;;;;;;0.50;0.40;;;;;;;;;;5009277;28;20093;-75
2023/01/12 09:21:22;;;;;;;0.65;0.60;;;;;;;;;;5010241;28;20538;-76
2023/01/12 09:23:48;;;;;;;0.82;0.50;;;;;;;;;;5011425;28;20022;-75
2023/01/12 09:26:15;;;;;;;0.60;0.60;;;;;;;;;;5009546;28;20519;-75
2023/01/12 09:28:44;;;;;;;1.00;0.55;;;;;;;;;;5011355;28;20048;-74
2023/01/12 09:31:12;;;;;;;1.23;0.47;;;;;;;;;;5009935;28;20029;-74
2023/01/12 09:33:38;;;;;;;0.90;0.52;;;;;;;;;;5011237;28;20488;-74
2023/01/12 09:36:05;;;;;;;1.20;0.40;;;;;;;;;;5007788;28;20489;-74
2023/01/12 09:38:32;;;;;;;1.55;0.52;;;;;;;;;;5011322;28;20026;-74
2023/01/12 09:41:01;;;;;;;1.08;0.60;;;;;;;;;;4999580;28;20037;-74
2023/01/12 09:49:07;;;;;;;2.00;0.73;;;;;;;;;;5000694;28;20092;-74
2023/01/12 09:51:34;;;;;;;2.72;0.70;;;;;;;;;;5001305;28;20037;-73
2023/01/12 09:54:00;;;;;;;0.73;0.40;;;;;;;;;;5006661;28;20033;-74
2023/01/12 09:56:26;;;;;;;1.88;0.50;;;;;;;;;;5005776;28;20499;-74
2023/01/12 09:59:18;;;;;;;2.03;0.60;;;;;;;;;;5004116;28;20035;-74
2023/01/12 10:01:44;;;;;;;0.40;0.40;;;;;;;;;;5003265;28;20042;-74
2023/01/12 10:04:10;;;;;;;2.60;0.60;;;;;;;;;;5009708;28;20025;-73
2023/01/12 10:06:36;;;;;;;1.50;0.40;;;;;;;;;;5005139;28;20032;-75
2023/01/12 10:09:04;;;;;;;0.57;0.50;;;;;;;;;;4981024;28;20030;-74
2023/01/12 10:11:30;;;;;;;0.70;0.32;;;;;;;;;;5007659;28;20026;-75
2023/01/12 10:14:14;;;;;;;1.15;0.55;;;;;;;;;;5000536;28;20707;-75
2023/01/12 10:16:40;;;;;;;1.33;0.40;;;;;;;;;;4997920;28;20116;-74
2023/01/12 10:19:15;;;;;;;2.10;0.57;;;;;;;;;;5006324;28;20072;-74
2023/01/12 10:21:41;;;;;;;2.58;0.60;;;;;;;;;;5000093;28;20084;-74
2023/01/12 10:24:11;;;;;;;1.10;0.52;;;;;;;;;;4999343;28;20026;-74
2023/01/12 10:26:41;;;;;;;0.80;0.43;;;;;;;;;;4995932;28;20027;-74
2023/01/12 10:29:09;;;;;;;1.45;0.68;;;;;;;;;;4992536;28;20035;-74
2023/01/12 10:31:35;;;;;;;0.95;0.45;;;;;;;;;;4999606;28;20040;-74
2023/01/12 10:34:08;;;;;;;2.42;0.60;;;;;;;;;;5001695;28;20440;-74
2023/01/12 10:36:35;;;;;;;0.65;0.57;;;;;;;;;;5008124;28;20022;-74
2023/01/12 10:39:03;;;;;;;0.95;0.50;;;;;;;;;;5004898;28;20026;-74
2023/01/12 10:41:30;;;;;;;0.95;0.50;;;;;;;;;;5003969;28;20062;-74
2023/01/12 10:43:59;;;;;;;0.50;0.50;;;;;;;;;;5003598;28;20468;-75
2023/01/12 10:46:31;;;;;;;1.30;0.85;;;;;;;;;;5001327;28;20188;-75
2023/01/12 10:49:15;;;;;;;1.02;0.45;;;;;;;;;;5003431;28;20033;-74
2023/01/12 10:51:52;;;;;;;2.75;1.45;;;;;;;;;;5007032;28;20033;-75
2023/01/12 10:54:20;;;;;;;1.38;0.70;;;;;;;;;;4990880;28;20112;-74
2023/01/12 10:56:54;;;;;;;2.03;0.70;;;;;;;;;;5002930;28;20059;-74
2023/01/12 10:59:24;;;;;;;2.25;0.77;;;;;;;;;;4999852;28;20409;-74
2023/01/12 11:01:51;;;;;;;0.70;0.45;;;;;;;;;;4999073;28;20425;-74
2023/01/12 11:04:22;;;;;;;1.58;0.55;;;;;;;;;;5002767;28;20042;-74
2023/01/12 11:07:00;;;;;;;2.80;0.82;;;;;;;;;;4994659;28;20049;-74
2023/01/12 11:09:28;;;;;;;0.70;0.40;;;;;;;;;;5003464;28;20413;-74
2023/01/12 11:11:54;;;;;;;0.98;0.50;;;;;;;;;;5005180;28;20022;-74
2023/01/12 11:14:25;;;;;;;0.57;0.43;;;;;;;;;;5005811;28;20168;-75
2023/01/12 11:16:51;;;;;;;3.72;1.20;;;;;;;;;;5001744;28;20030;-75
2023/01/12 11:19:20;;;;;;;0.90;0.57;;;;;;;;;;5003401;28;20041;-74
2023/01/12 11:21:49;;;;;;;2.65;0.82;;;;;;;;;;5003940;28;20049;-74
2023/01/12 11:24:30;;;;;;;0.52;0.52;;;;;;;;;;5007976;28;20010;-74
2023/01/12 11:27:02;;;;;;;1.73;0.60;;;;;;;;;;4998845;28;20472;-74
2023/01/12 11:29:28;;;;;;;;;;;;;;;;;;5004891;28;20385;-75
2023/01/12 11:31:56;;;;;;;2.90;0.60;;;;;;;;;;5007284;28;19933;-74
2023/01/12 11:34:24;;;;;;;0.65;0.47;;;;;;;;;;5007647;28;20041;-74
2023/01/12 11:36:53;;;;;;;1.75;0.73;;;;;;;;;;5014185;28;20076;-74
2023/01/12 11:39:23;;;;;;;0.85;0.50;;;;;;;;;;5002472;28;20052;-74
2023/01/12 11:44:39;;;;;;;0.70;0.50;;;;;;;;;;5000361;28;20033;-77
2023/01/12 11:47:11;;;;;;;0.50;0.50;;;;;;;;;;5005324;28;20030;-77
2023/01/12 11:49:40;;;;;;;1.75;0.70;;;;;;;;;;5004999;28;20668;-77
2023/01/12 11:52:10;;;;;;;0.88;0.65;;;;;;;;;;5006588;28;20057;-77
2023/01/12 11:54:37;;;;;;;0.63;0.47;;;;;;;;;;5002152;28;20018;-77
2023/01/12 11:57:22;;;;;;;0.60;0.50;;;;;;;;;;5007329;28;20099;-77
2023/01/12 11:59:48;;;;;;;0.45;0.45;;;;;;;;;;5006496;28;20040;-78
2023/01/12 12:02:27;;;;;;;0.95;0.60;;;;;;;;;;5006703;28;20034;-78
2023/01/12 12:05:04;;;;;;;1.70;0.63;;;;;;;;;;5005563;28;20060;-78
2023/01/12 12:07:30;;;;;;;0.45;0.45;;;;;;;;;;5006493;28;20514;-78
2023/01/12 12:10:21;;;;;;;0.50;0.40;;;;;;;;;;5007289;28;20022;-78
2023/01/12 12:13:06;;;;;;;1.15;0.43;;;;;;;;;;5005027;28;20034;-78
2023/01/12 12:15:37;;;;;;;2.53;0.70;;;;;;;;;;5006773;28;20026;-78
2023/01/12 12:18:11;;;;;;;0.98;0.63;;;;;;;;;;5004626;28;20125;-78
2023/01/12 12:20:49;;;;;;;1.25;0.55;;;;;;;;;;5007870;28;20041;-78
2023/01/12 12:23:29;;;;;;;0.55;0.50;;;;;;;;;;5007841;28;20036;-78
2023/01/12 12:26:06;;;;;;;1.13;0.60;;;;;;;;;;5006791;28;20579;-78
2023/01/12 12:28:35;;;;;;;0.63;0.63;;;;;;;;;;5003817;28;20132;-78
2023/01/12 12:31:15;;;;;;;1.95;0.70;;;;;;;;;;5007908;28;20022;-78
2023/01/12 12:33:53;;;;;;;1.23;0.68;;;;;;;;;;5007709;28;20041;-78
2023/01/12 12:36:28;;;;;;;1.95;0.70;;;;;;;;;;4998255;28;20448;-78
2023/01/12 12:39:11;;;;;;;2.33;0.70;;;;;;;;;;5006938;28;20042;-78
2023/01/12 12:47:39;;;;;;;2.22;0.70;;;;;;;;;;5007095;28;20369;-78
2023/01/12 12:50:12;;;;;;;0.60;0.40;;;;;;;;;;5011124;28;20026;-78
2023/01/12 12:52:38;;;;;;;1.13;0.50;;;;;;;;;;5010603;28;20113;-78
2023/01/12 12:55:05;;;;;;;0.60;0.30;;;;;;;;;;5011338;28;20105;-78
2023/01/12 12:57:31;;;;;;;0.95;0.40;;;;;;;;;;5008089;28;20030;-78
2023/01/12 13:00:02;;;;;;;0.57;0.43;;;;;;;;;;5005998;28;20121;-78
2023/01/12 13:02:28;;;;;;;;;;;;;;;;;;5010153;28;20030;-78
2023/01/12 13:04:56;;;;;;;0.68;0.40;;;;;;;;;;5011099;28;19996;-77
2023/01/12 13:07:22;;;;;;;0.52;0.35;;;;;;;;;;5005339;28;20018;-78
2023/01/12 13:09:49;;;;;;;0.40;0.40;;;;;;;;;;5004571;28;20034;-77
2023/01/12 13:12:15;;;;;;;1.25;0.60;;;;;;;;;;5008006;28;20029;-78
2023/01/12 13:14:42;;;;;;;0.68;0.57;;;;;;;;;;5011125;28;20511;-78
2023/01/12 13:17:20;;;;;;;0.90;0.50;;;;;;;;;;5001005;28;20124;-78
2023/01/12 13:19:52;;;;;;;0.75;0.30;;;;;;;;;;5008950;28;20034;-78
2023/01/12 13:22:27;;;;;;;1.00;0.40;;;;;;;;;;5009765;28;20026;-78
2023/01/12 13:24:54;;;;;;;0.65;0.35;;;;;;;;;;5007265;28;20507;-77
2023/01/12 13:27:39;;;;;;;1.67;0.63;;;;;;;;;;5009258;28;20032;-78
2023/01/12 13:30:19;;;;;;;0.43;0.40;;;;;;;;;;5010319;28;20022;-78
2023/01/12 13:33:02;;;;;;;0.30;0.30;;;;;;;;;;5008283;28;22226;-78
2023/01/12 13:35:34;;;;;;;1.25;0.30;;;;;;;;;;5005706;28;20394;-78
2023/01/12 13:38:07;;;;;;;0.68;0.30;;;;;;;;;;5006204;28;20092;-78
2023/01/12 13:40:33;;;;;;;0.30;0.30;;;;;;;;;;5010091;28;20137;-77
2023/01/12 13:43:21;;;;;;;0.95;0.50;;;;;;;;;;5007623;28;20352;-78
2023/01/12 13:46:06;;;;;;;3.50;0.47;;;;;;;;;;5002500;28;20249;-77
2023/01/12 13:48:34;;;;;;;1.88;0.40;;;;;;;;;;5007565;28;20025;-77
2023/01/12 13:51:06;;;;;;;0.30;0.30;;;;;;;;;;4990195;28;20021;-77
2023/01/12 13:53:32;;;;;;;0.68;0.47;;;;;;;;;;5008137;28;20034;-77
2023/01/12 13:56:03;;;;;;;1.48;0.40;;;;;;;;;;5009579;28;20928;-77
2023/01/12 13:58:37;;;;;;;0.67;0.50;;;;;;;;;;5006848;28;20057;-77
2023/01/12 14:01:03;;;;;;;0.50;0.45;;;;;;;;;;5003923;28;20299;-77
2023/01/12 14:03:48;;;;;;;0.40;0.40;;;;;;;;;;5009896;28;20026;-78
2023/01/12 14:06:14;;;;;;;0.63;0.32;;;;;;;;;;5008426;28;20030;-78
2023/01/12 14:08:48;;;;;;;0.35;0.30;;;;;;;;;;5008116;28;20500;-78
2023/01/12 14:11:39;;;;;;;0.80;0.47;;;;;;;;;;5008203;28;20037;-78
2023/01/12 14:19:58;;;;;;;0.47;0.32;;;;;;;;;;5003394;28;20037;-78
2023/01/12 14:22:24;;;;;;;1.08;0.43;;;;;;;;;;5006211;28;20030;-78
2023/01/12 14:24:50;;;;;;;0.28;0.20;;;;;;;;;;5008307;28;20042;-78
2023/01/12 14:27:23;;;;;;;0.50;0.50;;;;;;;;;;5007164;28;20038;-78
2023/01/12 14:29:49;;;;;;;0.22;0.22;;;;;;;;;;5009631;28;20112;-78
2023/01/12 14:32:17;;;;;;;0.52;0.20;;;;;;;;;;5005498;28;20041;-78
2023/01/12 14:34:48;;;;;;;0.70;0.30;;;;;;;;;;5007933;28;20026;-78
2023/01/12 14:37:31;;;;;;;0.40;0.40;;;;;;;;;;5008481;28;20022;-77
2023/01/12 14:39:58;;;;;;;0.57;0.30;;;;;;;;;;5007625;28;20040;-78
2023/01/12 14:48:25;;;;;;;0.38;0.38;;;;;;;;;;5008548;28;20064;-77
2023/01/12 14:50:58;;;;;;;0.20;0.20;;;;;;;;;;5007348;28;20030;-77
2023/01/12 14:53:30;;;;;;;0.32;0.22;;;;;;;;;;5005289;28;20489;-77
2023/01/12 14:56:05;;;;;;;0.45;0.35;;;;;;;;;;5001796;28;20501;-77
2023/01/12 14:58:31;;;;;;;0.40;0.40;;;;;;;;;;5004039;28;20030;-77
2023/01/12 15:00:57;;;;;;;0.50;0.35;;;;;;;;;;5008464;28;20052;-77
2023/01/12 15:03:24;;;;;;;0.55;0.50;;;;;;;;;;5007050;28;20485;-77
2023/01/12 15:05:53;;;;;;;0.82;0.38;;;;;;;;;;5007082;28;20026;-79
2023/01/12 15:08:25;;;;;;;0.30;0.20;;;;;;;;;;5006175;28;20034;-78
2023/01/12 15:11:07;;;;;;;0.55;0.20;;;;;;;;;;5008355;28;20034;-78
2023/01/12 15:13:35;;;;;;;0.17;0.17;;;;;;;;;;5008679;28;20061;-78
2023/01/12 15:27:07;;;;;;;0.30;0.30;;;;;;;;;;5008794;28;20044;-76
2023/01/12 15:29:33;;;;;;;1.00;0.50;;;;;;;;;;5005436;28;20460;-78
2023/01/12 15:31:59;;;;;;;1.25;0.50;;;;;;;;;;5008008;28;20504;-77
2023/01/12 15:34:25;;;;;;;0.20;0.20;;;;;;;;;;5008198;28;20058;-77
2023/01/12 15:36:51;;;;;;;0.40;0.40;;;;;;;;;;5004694;28;20061;-77
2023/01/12 15:39:17;;;;;;;0.30;0.22;;;;;;;;;;5002689;28;20026;-77
2023/01/12 15:44:28;;;;;;;0.70;0.40;;;;;;;;;;4996794;28;20068;-78
2023/01/12 15:46:54;;;;;;;0.30;0.20;;;;;;;;;;5004981;28;20026;-77
2023/01/12 15:49:20;;;;;;;0.73;0.32;;;;;;;;;;5007866;28;20021;-78
2023/01/12 15:51:50;;;;;;;0.30;0.30;;;;;;;;;;5008464;28;20530;-78
2023/01/12 15:54:17;;;;;;;0.30;0.30;;;;;;;;;;5003878;28;20421;-78
2023/01/12 15:56:44;;;;;;;0.20;0.20;;;;;;;;;;5002792;28;20116;-78
2023/01/12 15:59:10;;;;;;;0.10;0.10;;;;;;;;;;5006374;28;20053;-78
2023/01/12 16:01:43;;;;;;;0.20;0.20;;;;;;;;;;5008164;28;20072;-78
2023/01/12 16:04:14;;;;;;;0.20;0.20;;;;;;;;;;5001011;28;20513;-77